sensor_id;sensor_type;location;lat;lon;timestamp;pressure;altitude;pressure_sealevel;temperature;humidity
59055;BME280;44845;51.444;7.460;2023-11-19T00:01:07;99086.88;;;9.54;100.00
59055;BME280;44845;51.444;7.460;2023-11-19T00:03:33;99081.59;;;9.57;100.00
59055;BME280;44845;51.444;7.460;2023-11-19T00:05:58;99050.34;;;9.48;100.00
59055;BME280;44845;51.444;7.460;2023-11-19T00:08:24;99052.78;;;9.57;100.00
59055;BME280;44845;51.444;7.460;2023-11-19T00:10:50;99051.06;;;9.57;100.00
59055;BME280;44845;51.444;7.460;2023-11-19T00:13:16;99036.13;;;9.63;100.00
59055;BME280;44845;51.444;7.460;2023-11-19T00:15:41;99047.44;;;9.65;100.00
59055;BME280;44845;51.444;7.460;2023-11-19T00:18:07;99070.97;;;9.68;100.00
59055;BME280;44845;51.444;7.460;2023-11-19T00:20:32;99062.22;;;9.67;100.00
59055;BME280;44845;51.444;7.460;2023-11-19T00:22:58;99057.91;;;9.65;100.00
59055;BME280;44845;51.444;7.460;2023-11-19T00:25:23;99066.56;;;9.68;100.00
59055;BME280;44845;51.444;7.460;2023-11-19T00:27:49;99070.03;;;9.71;100.00
59055;BME280;44845;51.444;7.460;2023-11-19T00:30:15;99055.97;;;9.76;100.00
59055;BME280;44845;51.444;7.460;2023-11-19T00:32:42;99051.63;;;9.74;100.00
59055;BME280;44845;51.444;7.460;2023-11-19T00:35:07;99070.88;;;9.73;100.00
59055;BME280;44845;51.444;7.460;2023-11-19T00:37:33;99082.09;;;9.79;100.00
59055;BME280;44845;51.444;7.460;2023-11-19T00:39:59;99076.88;;;9.79;100.00
59055;BME280;44845;51.444;7.460;2023-11-19T00:42:24;99079.44;;;9.83;100.00
59055;BME280;44845;51.444;7.460;2023-11-19T00:44:50;99061.91;;;9.86;100.00
59055;BME280;44845;51.444;7.460;2023-11-19T00:47:16;99063.56;;;9.92;100.00
59055;BME280;44845;51.444;7.460;2023-11-19T00:49:41;99059.16;;;9.94;100.00
59055;BME280;44845;51.444;7.460;2023-11-19T00:52:08;99071.38;;;9.95;100.00
59055;BME280;44845;51.444;7.460;2023-11-19T00:54:33;99061.81;;;9.91;100.00
59055;BME280;44845;51.444;7.460;2023-11-19T00:56:58;99053.91;;;9.94;100.00
59055;BME280;44845;51.444;7.460;2023-11-19T00:59:24;99054.75;;;9.98;100.00
59055;BME280;44845;51.444;7.460;2023-11-19T01:01:49;99059.91;;;10.01;100.00
59055;BME280;44845;51.444;7.460;2023-11-19T01:04:16;99058.13;;;10.03;100.00
59055;BME280;44845;51.444;7.460;2023-11-19T01:06:41;99056.31;;;10.07;100.00
59055;BME280;44845;51.444;7.460;2023-11-19T01:09:08;99049.34;;;10.06;100.00
59055;BME280;44845;51.444;7.460;2023-11-19T01:11:34;99038.03;;;10.03;100.00
59055;BME280;44845;51.444;7.460;2023-11-19T01:13:59;99032.75;;;10.07;100.00
59055;BME280;44845;51.444;7.460;2023-11-19T01:16:26;99034.44;;;10.08;100.00
59055;BME280;44845;51.444;7.460;2023-11-19T01:18:51;99030.84;;;10.13;100.00
59055;BME280;44845;51.444;7.460;2023-11-19T01:21:17;99020.41;;;10.12;100.00
59055;BME280;44845;51.444;7.460;2023-11-19T01:23:43;99034.34;;;10.14;100.00
59055;BME280;44845;51.444;7.460;2023-11-19T01:26:09;99037.78;;;10.16;100.00
59055;BME280;44845;51.444;7.460;2023-11-19T01:28:35;99034.34;;;10.14;100.00
59055;BME280;44845;51.444;7.460;2023-11-19T01:31:01;99042.06;;;10.20;100.00
59055;BME280;44845;51.444;7.460;2023-11-19T01:33:26;99032.50;;;10.19;100.00
59055;BME280;44845;51.444;7.460;2023-11-19T01:35:53;99046.47;;;10.20;100.00
59055;BME280;44845;51.444;7.460;2023-11-19T01:38:18;99036.78;;;10.23;100.00
59055;BME280;44845;51.444;7.460;2023-11-19T01:40:43;99039.34;;;10.27;100.00
59055;BME280;44845;51.444;7.460;2023-11-19T01:43:09;99042.03;;;10.23;100.00
59055;BME280;44845;51.444;7.460;2023-11-19T01:45:37;99039.31;;;10.30;100.00
59055;BME280;44845;51.444;7.460;2023-11-19T01:48:03;99030.41;;;10.37;100.00
59055;BME280;44845;51.444;7.460;2023-11-19T01:50:30;99017.22;;;10.40;100.00
59055;BME280;44845;51.444;7.460;2023-11-19T01:52:56;99027.69;;;10.42;100.00
59055;BME280;44845;51.444;7.460;2023-11-19T01:55:26;99024.13;;;10.46;100.00
59055;BME280;44845;51.444;7.460;2023-11-19T01:57:54;99023.28;;;10.42;100.00
59055;BME280;44845;51.444;7.460;2023-11-19T02:00:20;99026.00;;;10.39;100.00
59055;BME280;44845;51.444;7.460;2023-11-19T02:02:47;99018.16;;;10.39;100.00
59055;BME280;44845;51.444;7.460;2023-11-19T02:05:13;99020.66;;;10.44;100.00
59055;BME280;44845;51.444;7.460;2023-11-19T02:07:39;99012.81;;;10.42;100.00
59055;BME280;44845;51.444;7.460;2023-11-19T02:10:05;99015.44;;;10.42;100.00
59055;BME280;44845;51.444;7.460;2023-11-19T02:12:31;99019.75;;;10.46;100.00
59055;BME280;44845;51.444;7.460;2023-11-19T02:15:01;99022.28;;;10.50;100.00
59055;BME280;44845;51.444;7.460;2023-11-19T02:17:30;99004.84;;;10.48;100.00
59055;BME280;44845;51.444;7.460;2023-11-19T02:20:00;99009.25;;;10.46;100.00
59055;BME280;44845;51.444;7.460;2023-11-19T02:22:25;99013.63;;;10.46;100.00
59055;BME280;44845;51.444;7.460;2023-11-19T02:24:59;99008.34;;;10.47;100.00
59055;BME280;44845;51.444;7.460;2023-11-19T02:27:38;99004.00;;;10.46;100.00
59055;BME280;44845;51.444;7.460;2023-11-19T02:30:04;98995.22;;;10.47;100.00
59055;BME280;44845;51.444;7.460;2023-11-19T02:32:31;98994.28;;;10.53;100.00
59055;BME280;44845;51.444;7.460;2023-11-19T02:34:56;98967.19;;;10.53;100.00
59055;BME280;44845;51.444;7.460;2023-11-19T02:37:22;98963.59;;;10.57;100.00
59055;BME280;44845;51.444;7.460;2023-11-19T02:39:47;98964.47;;;10.57;100.00
59055;BME280;44845;51.444;7.460;2023-11-19T02:42:12;98961.84;;;10.59;100.00
59055;BME280;44845;51.444;7.460;2023-11-19T02:44:38;98970.53;;;10.61;100.00
59055;BME280;44845;51.444;7.460;2023-11-19T02:47:05;98963.59;;;10.57;100.00
59055;BME280;44845;51.444;7.460;2023-11-19T02:49:33;98974.19;;;10.54;100.00
59055;BME280;44845;51.444;7.460;2023-11-19T02:51:58;98970.59;;;10.58;100.00
59055;BME280;44845;51.444;7.460;2023-11-19T02:54:24;98968.66;;;10.66;100.00
59055;BME280;44845;51.444;7.460;2023-11-19T02:56:52;98971.44;;;10.58;100.00
59055;BME280;44845;51.444;7.460;2023-11-19T02:59:21;98976.66;;;10.60;100.00
59055;BME280;44845;51.444;7.460;2023-11-19T03:01:53;98974.94;;;10.59;100.00
59055;BME280;44845;51.444;7.460;2023-11-19T03:04:19;98967.91;;;10.59;100.00
59055;BME280;44845;51.444;7.460;2023-11-19T03:06:46;98965.19;;;10.64;100.00
59055;BME280;44845;51.444;7.460;2023-11-19T03:09:12;98950.25;;;10.68;100.00
59055;BME280;44845;51.444;7.460;2023-11-19T03:11:37;98961.56;;;10.72;100.00
59055;BME280;44845;51.444;7.460;2023-11-19T03:14:03;98952.00;;;10.69;100.00
59055;BME280;44845;51.444;7.460;2023-11-19T03:16:29;98952.84;;;10.69;100.00
59055;BME280;44845;51.444;7.460;2023-11-19T03:18:54;98956.34;;;10.70;100.00
59055;BME280;44845;51.444;7.460;2023-11-19T03:21:27;98953.59;;;10.75;100.00
59055;BME280;44845;51.444;7.460;2023-11-19T03:23:53;98948.44;;;10.72;100.00
59055;BME280;44845;51.444;7.460;2023-11-19T03:26:18;98949.34;;;10.70;100.00
59055;BME280;44845;51.444;7.460;2023-11-19T03:28:43;98944.97;;;10.69;100.00
59055;BME280;44845;51.444;7.460;2023-11-19T03:31:09;98934.53;;;10.68;100.00
59055;BME280;44845;51.444;7.460;2023-11-19T03:33:34;98928.28;;;10.74;100.00
59055;BME280;44845;51.444;7.460;2023-11-19T03:35:59;98928.28;;;10.74;100.00
59055;BME280;44845;51.444;7.460;2023-11-19T03:38:25;98932.66;;;10.73;100.00
59055;BME280;44845;51.444;7.460;2023-11-19T03:40:50;98940.50;;;10.75;100.00
59055;BME280;44845;51.444;7.460;2023-11-19T03:43:16;98944.84;;;10.76;100.00
59055;BME280;44845;51.444;7.460;2023-11-19T03:45:41;98939.59;;;10.76;100.00
59055;BME280;44845;51.444;7.460;2023-11-19T03:48:07;98954.38;;;10.80;100.00
59055;BME280;44845;51.444;7.460;2023-11-19T03:50:32;98954.47;;;10.75;100.00
59055;BME280;44845;51.444;7.460;2023-11-19T03:52:57;98954.41;;;10.78;100.00
59055;BME280;44845;51.444;7.460;2023-11-19T03:55:23;98953.59;;;10.75;100.00
59055;BME280;44845;51.444;7.460;2023-11-19T03:57:48;98963.28;;;10.73;100.00
59055;BME280;44845;51.444;7.460;2023-11-19T04:00:14;98953.47;;;10.81;100.00
59055;BME280;44845;51.444;7.460;2023-11-19T04:02:40;98962.16;;;10.83;100.00
59055;BME280;44845;51.444;7.460;2023-11-19T04:05:06;98971.91;;;10.78;100.00
59055;BME280;44845;51.444;7.460;2023-11-19T04:07:32;98957.91;;;10.79;100.00
59055;BME280;44845;51.444;7.460;2023-11-19T04:09:57;98967.69;;;10.70;100.00
59055;BME280;44845;51.444;7.460;2023-11-19T04:12:23;98961.56;;;10.72;100.00
59055;BME280;44845;51.444;7.460;2023-11-19T04:14:48;98954.59;;;10.70;100.00
59055;BME280;44845;51.444;7.460;2023-11-19T04:17:13;98965.03;;;10.72;100.00
59055;BME280;44845;51.444;7.460;2023-11-19T04:19:39;98962.50;;;10.69;100.00
59055;BME280;44845;51.444;7.460;2023-11-19T04:22:09;98961.56;;;10.72;100.00
59055;BME280;44845;51.444;7.460;2023-11-19T04:24:35;98962.50;;;10.67;100.00
59055;BME280;44845;51.444;7.460;2023-11-19T04:27:00;98959.81;;;10.70;100.00
59055;BME280;44845;51.444;7.460;2023-11-19T04:29:25;98965.13;;;10.67;100.00
59055;BME280;44845;51.444;7.460;2023-11-19T04:31:51;98973.94;;;10.65;100.00
59055;BME280;44845;51.444;7.460;2023-11-19T04:34:16;98972.22;;;10.62;100.00
59055;BME280;44845;51.444;7.460;2023-11-19T04:36:41;98970.22;;;10.75;100.00
59055;BME280;44845;51.444;7.460;2023-11-19T04:39:09;98971.25;;;10.68;100.00
59055;BME280;44845;51.444;7.460;2023-11-19T04:41:49;98977.31;;;10.70;100.00
59055;BME280;44845;51.444;7.460;2023-11-19T04:44:16;98974.69;;;10.70;100.00
59055;BME280;44845;51.444;7.460;2023-11-19T04:46:42;98978.19;;;10.70;100.00
59055;BME280;44845;51.444;7.460;2023-11-19T04:49:14;98970.44;;;10.64;100.00
59055;BME280;44845;51.444;7.460;2023-11-19T04:51:41;98979.06;;;10.69;100.00
59055;BME280;44845;51.444;7.460;2023-11-19T04:54:07;98974.84;;;10.64;100.00
59055;BME280;44845;51.444;7.460;2023-11-19T04:56:34;98977.56;;;10.59;100.00
59055;BME280;44845;51.444;7.460;2023-11-19T04:58:59;98982.88;;;10.56;100.00
59055;BME280;44845;51.444;7.460;2023-11-19T05:01:24;98984.84;;;10.44;100.00
59055;BME280;44845;51.444;7.460;2023-11-19T05:03:50;98983.75;;;10.55;100.00
59055;BME280;44845;51.444;7.460;2023-11-19T05:06:16;98982.72;;;10.62;100.00
59055;BME280;44845;51.444;7.460;2023-11-19T05:08:42;98982.81;;;10.57;100.00
59055;BME280;44845;51.444;7.460;2023-11-19T05:11:07;98993.53;;;10.46;100.00
59055;BME280;44845;51.444;7.460;2023-11-19T05:13:33;98974.03;;;10.60;100.00
59055;BME280;44845;51.444;7.460;2023-11-19T05:15:58;98974.03;;;10.60;100.00
59055;BME280;44845;51.444;7.460;2023-11-19T05:18:23;98970.66;;;10.55;100.00
59055;BME280;44845;51.444;7.460;2023-11-19T05:20:49;98980.19;;;10.57;100.00
59055;BME280;44845;51.444;7.460;2023-11-19T05:23:14;99000.41;;;10.52;100.00
59055;BME280;44845;51.444;7.460;2023-11-19T05:25:39;98988.19;;;10.50;100.00
59055;BME280;44845;51.444;7.460;2023-11-19T05:28:05;98989.88;;;10.55;100.00
59055;BME280;44845;51.444;7.460;2023-11-19T05:30:30;98983.59;;;10.63;100.00
59055;BME280;44845;51.444;7.460;2023-11-19T05:32:55;98993.22;;;10.62;100.00
59055;BME280;44845;51.444;7.460;2023-11-19T05:35:23;98990.56;;;10.64;100.00
59055;BME280;44845;51.444;7.460;2023-11-19T05:37:48;99002.19;;;10.52;100.00
59055;BME280;44845;51.444;7.460;2023-11-19T05:40:15;99005.44;;;10.63;100.00
59055;BME280;44845;51.444;7.460;2023-11-19T05:42:41;98984.31;;;10.69;100.00
59055;BME280;44845;51.444;7.460;2023-11-19T05:45:07;98997.56;;;10.63;100.00
59055;BME280;44845;51.444;7.460;2023-11-19T05:47:33;98977.41;;;10.65;100.00
59055;BME280;44845;51.444;7.460;2023-11-19T05:49:58;98989.03;;;10.53;100.00
59055;BME280;44845;51.444;7.460;2023-11-19T05:52:24;98998.59;;;10.56;100.00
59055;BME280;44845;51.444;7.460;2023-11-19T05:54:49;98990.78;;;10.54;100.00
59055;BME280;44845;51.444;7.460;2023-11-19T05:57:17;98982.88;;;10.56;100.00
59055;BME280;44845;51.444;7.460;2023-11-19T05:59:48;98979.28;;;10.60;100.00
59055;BME280;44845;51.444;7.460;2023-11-19T06:02:13;98983.75;;;10.56;100.00
59055;BME280;44845;51.444;7.460;2023-11-19T06:04:38;98969.88;;;10.51;100.00
59055;BME280;44845;51.444;7.460;2023-11-19T06:07:04;98988.06;;;10.59;100.00
59055;BME280;44845;51.444;7.460;2023-11-19T06:09:30;98989.91;;;10.54;100.00
59055;BME280;44845;51.444;7.460;2023-11-19T06:11:57;98987.09;;;10.63;100.00
59055;BME280;44845;51.444;7.460;2023-11-19T06:14:22;99008.25;;;10.54;100.00
59055;BME280;44845;51.444;7.460;2023-11-19T06:16:49;98994.88;;;10.66;100.00
59055;BME280;44845;51.444;7.460;2023-11-19T06:19:16;98994.25;;;10.55;100.00
59055;BME280;44845;51.444;7.460;2023-11-19T06:21:42;98993.16;;;10.65;100.00
59055;BME280;44845;51.444;7.460;2023-11-19T06:24:07;98989.03;;;10.53;100.00
59055;BME280;44845;51.444;7.460;2023-11-19T06:26:34;98995.06;;;10.57;100.00
59055;BME280;44845;51.444;7.460;2023-11-19T06:28:59;99011.66;;;10.59;100.00
59055;BME280;44845;51.444;7.460;2023-11-19T06:31:25;98998.41;;;10.65;100.00
59055;BME280;44845;51.444;7.460;2023-11-19T06:33:50;99003.88;;;10.54;100.00
59055;BME280;44845;51.444;7.460;2023-11-19T06:36:15;99006.50;;;10.54;100.00
59055;BME280;44845;51.444;7.460;2023-11-19T06:38:43;99014.06;;;10.68;100.00
59055;BME280;44845;51.444;7.460;2023-11-19T06:41:09;99013.16;;;10.69;100.00
59055;BME280;44845;51.444;7.460;2023-11-19T06:43:35;98999.97;;;10.73;100.00
59055;BME280;44845;51.444;7.460;2023-11-19T06:46:01;99003.53;;;10.72;100.00
59055;BME280;44845;51.444;7.460;2023-11-19T06:48:27;99014.13;;;10.65;100.00
59055;BME280;44845;51.444;7.460;2023-11-19T06:50:54;99000.03;;;10.69;100.00
59055;BME280;44845;51.444;7.460;2023-11-19T06:53:19;99002.00;;;10.61;100.00
59055;BME280;44845;51.444;7.460;2023-11-19T06:55:45;99014.56;;;10.43;100.00
59055;BME280;44845;51.444;7.460;2023-11-19T06:58:10;99023.19;;;10.48;100.00
59055;BME280;44845;51.444;7.460;2023-11-19T07:00:37;99026.00;;;10.39;100.00
59055;BME280;44845;51.444;7.460;2023-11-19T07:03:02;99018.00;;;10.45;100.00
59055;BME280;44845;51.444;7.460;2023-11-19T07:05:28;99037.94;;;10.56;100.00
59055;BME280;44845;51.444;7.460;2023-11-19T07:07:53;99040.53;;;10.56;100.00
59055;BME280;44845;51.444;7.460;2023-11-19T07:10:19;99048.34;;;10.59;100.00
59055;BME280;44845;51.444;7.460;2023-11-19T07:12:45;99051.19;;;10.46;100.00
59055;BME280;44845;51.444;7.460;2023-11-19T07:15:10;99040.63;;;10.50;100.00
59055;BME280;44845;51.444;7.460;2023-11-19T07:17:35;99043.38;;;10.43;100.00
59055;BME280;44845;51.444;7.460;2023-11-19T07:20:01;99049.59;;;10.39;100.00
59055;BME280;44845;51.444;7.460;2023-11-19T07:22:27;99054.66;;;10.48;100.00
59055;BME280;44845;51.444;7.460;2023-11-19T07:24:54;99049.41;;;10.48;100.00
59055;BME280;44845;51.444;7.460;2023-11-19T07:27:19;99054.00;;;10.37;100.00
59055;BME280;44845;51.444;7.460;2023-11-19T07:29:45;99065.19;;;10.45;100.00
59055;BME280;44845;51.444;7.460;2023-11-19T07:32:11;99052.91;;;10.47;100.00
59055;BME280;44845;51.444;7.460;2023-11-19T07:34:38;99051.09;;;10.53;100.00
59055;BME280;44845;51.444;7.460;2023-11-19T07:37:05;99054.47;;;10.58;100.00
59055;BME280;44845;51.444;7.460;2023-11-19T07:39:30;99052.69;;;10.60;100.00
59055;BME280;44845;51.444;7.460;2023-11-19T07:41:55;99048.31;;;10.61;100.00
59055;BME280;44845;51.444;7.460;2023-11-19T07:44:21;99058.00;;;10.57;99.84
59055;BME280;44845;51.444;7.460;2023-11-19T07:46:47;99072.94;;;10.53;100.00
59055;BME280;44845;51.444;7.460;2023-11-19T07:49:13;99083.44;;;10.50;99.94
59055;BME280;44845;51.444;7.460;2023-11-19T07:51:39;99065.31;;;10.39;100.00
59055;BME280;44845;51.444;7.460;2023-11-19T07:54:04;99070.47;;;10.42;100.00
59055;BME280;44845;51.444;7.460;2023-11-19T07:56:29;99078.19;;;10.53;100.00
59055;BME280;44845;51.444;7.460;2023-11-19T07:58:55;99083.31;;;10.58;99.40
59055;BME280;44845;51.444;7.460;2023-11-19T08:01:20;99080.66;;;10.61;98.99
59055;BME280;44845;51.444;7.460;2023-11-19T08:03:45;99092.06;;;10.58;98.58
59055;BME280;44845;51.444;7.460;2023-11-19T08:06:11;99082.50;;;10.56;99.26
59055;BME280;44845;51.444;7.460;2023-11-19T08:08:36;99089.59;;;10.47;99.08
59055;BME280;44845;51.444;7.460;2023-11-19T08:11:03;99085.41;;;10.39;99.13
59055;BME280;44845;51.444;7.460;2023-11-19T08:13:30;99093.06;;;10.50;98.93
59055;BME280;44845;51.444;7.460;2023-11-19T08:15:56;99091.44;;;10.42;98.20
59055;BME280;44845;51.444;7.460;2023-11-19T08:18:23;99094.94;;;10.44;98.73
59055;BME280;44845;51.444;7.460;2023-11-19T08:20:49;99096.56;;;10.52;98.61
59055;BME280;44845;51.444;7.460;2023-11-19T08:23:18;99116.72;;;10.46;98.63
59055;BME280;44845;51.444;7.460;2023-11-19T08:25:43;99107.91;;;10.52;98.18
59055;BME280;44845;51.444;7.460;2023-11-19T08:28:09;99102.63;;;10.54;98.19
59055;BME280;44845;51.444;7.460;2023-11-19T08:30:35;99103.53;;;10.53;98.63
59055;BME280;44845;51.444;7.460;2023-11-19T08:33:00;99119.28;;;10.50;98.47
59055;BME280;44845;51.444;7.460;2023-11-19T08:35:28;99108.66;;;10.59;97.99
59055;BME280;44845;51.444;7.460;2023-11-19T08:37:54;99108.63;;;10.61;97.72
59055;BME280;44845;51.444;7.460;2023-11-19T08:40:19;99115.66;;;10.57;97.25
59055;BME280;44845;51.444;7.460;2023-11-19T08:42:45;99103.28;;;10.65;97.70
59055;BME280;44845;51.444;7.460;2023-11-19T08:45:11;99105.25;;;10.54;97.85
59055;BME280;44845;51.444;7.460;2023-11-19T08:47:39;99114.91;;;10.52;98.20
59055;BME280;44845;51.444;7.460;2023-11-19T08:50:06;99119.28;;;10.50;98.28
59055;BME280;44845;51.444;7.460;2023-11-19T08:52:31;99114.91;;;10.52;97.79
59055;BME280;44845;51.444;7.460;2023-11-19T08:54:57;99111.28;;;10.57;98.12
59055;BME280;44845;51.444;7.460;2023-11-19T08:57:22;99117.47;;;10.55;98.77
59055;BME280;44845;51.444;7.460;2023-11-19T08:59:48;99113.81;;;10.64;98.19
59055;BME280;44845;51.444;7.460;2023-11-19T09:02:13;99113.56;;;10.75;97.95
59055;BME280;44845;51.444;7.460;2023-11-19T09:04:38;99115.19;;;10.82;97.69
59055;BME280;44845;51.444;7.460;2023-11-19T09:07:04;99106.44;;;10.83;97.38
59055;BME280;44845;51.444;7.460;2023-11-19T09:09:29;99109.81;;;10.88;96.78
59055;BME280;44845;51.444;7.460;2023-11-19T09:11:55;99116.00;;;10.86;96.82
59055;BME280;44845;51.444;7.460;2023-11-19T09:14:20;99114.97;;;10.91;96.97
59055;BME280;44845;51.444;7.460;2023-11-19T09:16:51;99115.19;;;10.82;97.35
59055;BME280;44845;51.444;7.460;2023-11-19T09:19:16;99118.50;;;10.90;96.81
59055;BME280;44845;51.444;7.460;2023-11-19T09:21:42;99117.59;;;10.91;96.85
59055;BME280;44845;51.444;7.460;2023-11-19T09:24:08;99120.94;;;11.00;97.05
59055;BME280;44845;51.444;7.460;2023-11-19T09:26:33;99121.75;;;11.02;96.78
59055;BME280;44845;51.444;7.460;2023-11-19T09:28:59;99122.69;;;10.99;96.23
59055;BME280;44845;51.444;7.460;2023-11-19T09:31:25;99135.72;;;11.04;96.26
59055;BME280;44845;51.444;7.460;2023-11-19T09:33:50;99118.34;;;10.98;96.24
59055;BME280;44845;51.444;7.460;2023-11-19T09:36:15;99120.31;;;10.88;95.80
59055;BME280;44845;51.444;7.460;2023-11-19T09:38:42;99127.94;;;10.99;96.12
59055;BME280;44845;51.444;7.460;2023-11-19T09:41:09;99109.53;;;11.02;95.86
59055;BME280;44845;51.444;7.460;2023-11-19T09:43:35;99122.50;;;11.09;95.27
59055;BME280;44845;51.444;7.460;2023-11-19T09:46:05;99116.47;;;11.05;95.84
59055;BME280;44845;51.444;7.460;2023-11-19T09:48:36;99110.53;;;10.95;94.32
59055;BME280;44845;51.444;7.460;2023-11-19T09:51:11;99114.09;;;10.92;94.99
59055;BME280;44845;51.444;7.460;2023-11-19T09:53:37;99109.63;;;10.98;95.88
59055;BME280;44845;51.444;7.460;2023-11-19T09:56:04;99121.72;;;11.05;95.27
59055;BME280;44845;51.444;7.460;2023-11-19T09:58:30;99111.22;;;11.05;94.89
59055;BME280;44845;51.444;7.460;2023-11-19T10:00:59;99115.75;;;10.97;93.57
59055;BME280;44845;51.444;7.460;2023-11-19T10:03:26;99120.13;;;10.98;94.08
59055;BME280;44845;51.444;7.460;2023-11-19T10:05:53;99126.97;;;11.05;94.15
59055;BME280;44845;51.444;7.460;2023-11-19T10:08:20;99123.34;;;11.09;94.65
59055;BME280;44845;51.444;7.460;2023-11-19T10:10:45;99119.03;;;11.08;94.09
59055;BME280;44845;51.444;7.460;2023-11-19T10:13:10;99124.38;;;11.03;93.32
59055;BME280;44845;51.444;7.460;2023-11-19T10:15:37;99113.69;;;11.11;93.54
59055;BME280;44845;51.444;7.460;2023-11-19T10:18:03;99111.97;;;11.10;93.80
59055;BME280;44845;51.444;7.460;2023-11-19T10:20:37;99113.50;;;11.59;100.00
59055;BME280;44845;51.444;7.460;2023-11-19T10:23:03;99106.75;;;11.85;95.17
59055;BME280;44845;51.444;7.460;2023-11-19T10:25:29;99107.94;;;12.08;92.95
59055;BME280;44845;51.444;7.460;2023-11-19T10:27:56;99111.78;;;12.30;90.42
59055;BME280;44845;51.444;7.460;2023-11-19T10:30:23;99113.00;;;12.49;88.59
59055;BME280;44845;51.444;7.460;2023-11-19T10:33:14;99113.13;;;12.45;86.56
59055;BME280;44845;51.444;7.460;2023-11-19T10:35:52;99105.41;;;12.03;86.58
59055;BME280;44845;51.444;7.460;2023-11-19T10:38:26;99099.13;;;11.74;87.47
59055;BME280;44845;51.444;7.460;2023-11-19T10:40:52;99106.34;;;11.66;88.08
59055;BME280;44845;51.444;7.460;2023-11-19T10:43:19;99095.91;;;11.63;89.10
59055;BME280;44845;51.444;7.460;2023-11-19T10:45:44;99102.81;;;11.67;89.85
59055;BME280;44845;51.444;7.460;2023-11-19T10:48:10;99104.53;;;11.68;90.20
59055;BME280;44845;51.444;7.460;2023-11-19T10:50:36;99102.28;;;11.52;90.65
59055;BME280;44845;51.444;7.460;2023-11-19T10:53:03;99102.28;;;11.52;90.75
59055;BME280;44845;51.444;7.460;2023-11-19T10:55:33;99102.19;;;11.55;90.51
59055;BME280;44845;51.444;7.460;2023-11-19T10:58:04;99104.69;;;11.62;90.82
59055;BME280;44845;51.444;7.460;2023-11-19T11:00:37;99094.38;;;11.54;89.00
59055;BME280;44845;51.444;7.460;2023-11-19T11:03:12;99100.56;;;11.51;89.78
59055;BME280;44845;51.444;7.460;2023-11-19T11:05:40;99092.00;;;11.43;89.94
59055;BME280;44845;51.444;7.460;2023-11-19T11:08:06;99092.75;;;11.48;90.17
59055;BME280;44845;51.444;7.460;2023-11-19T11:10:36;99094.41;;;11.52;90.97
59055;BME280;44845;51.444;7.460;2023-11-19T11:13:05;99092.66;;;11.53;90.79
59055;BME280;44845;51.444;7.460;2023-11-19T11:15:31;99095.38;;;11.48;89.87
59055;BME280;44845;51.444;7.460;2023-11-19T11:18:01;99088.34;;;11.48;90.38
59055;BME280;44845;51.444;7.460;2023-11-19T11:20:31;99096.22;;;11.50;89.65
59055;BME280;44845;51.444;7.460;2023-11-19T11:36:22;99094.63;;;11.43;90.16
59055;BME280;44845;51.444;7.460;2023-11-19T11:38:48;99092.59;;;11.54;90.03
59055;BME280;44845;51.444;7.460;2023-11-19T11:41:16;99097.00;;;11.54;90.44
59055;BME280;44845;51.444;7.460;2023-11-19T11:49:06;99094.19;;;11.62;90.50
59055;BME280;44845;51.444;7.460;2023-11-19T11:54:30;99072.34;;;11.59;89.56
59055;BME280;44845;51.444;7.460;2023-11-19T11:57:11;99081.94;;;11.60;89.23
59055;BME280;44845;51.444;7.460;2023-11-19T12:02:07;99067.00;;;11.64;89.25
59055;BME280;44845;51.444;7.460;2023-11-19T12:04:34;99049.63;;;11.58;88.67
59055;BME280;44845;51.444;7.460;2023-11-19T12:07:26;99042.91;;;11.46;89.20
59055;BME280;44845;51.444;7.460;2023-11-19T12:10:07;99058.47;;;11.54;88.37
59055;BME280;44845;51.444;7.460;2023-11-19T12:12:33;99052.13;;;11.63;88.09
59055;BME280;44845;51.444;7.460;2023-11-19T12:15:07;99054.72;;;11.65;88.78
59055;BME280;44845;51.444;7.460;2023-11-19T12:20:09;99051.03;;;11.72;88.62
59055;BME280;44845;51.444;7.460;2023-11-19T12:22:38;99059.88;;;11.68;88.90
59055;BME280;44845;51.444;7.460;2023-11-19T12:25:05;99058.81;;;11.75;88.33
59055;BME280;44845;51.444;7.460;2023-11-19T12:27:32;99031.63;;;11.78;87.01
59055;BME280;44845;51.444;7.460;2023-11-19T12:29:59;99046.06;;;11.61;86.49
59055;BME280;44845;51.444;7.460;2023-11-19T12:32:24;99036.97;;;11.75;86.50
59055;BME280;44845;51.444;7.460;2023-11-19T12:34:50;99039.66;;;11.71;86.62
59055;BME280;44845;51.444;7.460;2023-11-19T12:37:15;99049.25;;;11.73;86.89
59055;BME280;44845;51.444;7.460;2023-11-19T12:39:41;99050.94;;;11.75;86.89
59055;BME280;44845;51.444;7.460;2023-11-19T12:42:06;99048.47;;;11.69;86.35
59055;BME280;44845;51.444;7.460;2023-11-19T12:44:31;99043.22;;;11.69;86.64
59055;BME280;44845;51.444;7.460;2023-11-19T12:47:06;99040.41;;;11.77;87.13
59055;BME280;44845;51.444;7.460;2023-11-19T12:49:34;99032.53;;;11.77;87.89
59055;BME280;44845;51.444;7.460;2023-11-19T12:52:00;99025.59;;;11.74;87.25
59055;BME280;44845;51.444;7.460;2023-11-19T12:54:35;99024.59;;;11.78;86.97
59055;BME280;44845;51.444;7.460;2023-11-19T12:57:01;99022.72;;;11.83;86.78
59055;BME280;44845;51.444;7.460;2023-11-19T12:59:26;99021.84;;;11.85;86.38
59055;BME280;44845;51.444;7.460;2023-11-19T13:01:59;99022.53;;;11.91;87.02
59055;BME280;44845;51.444;7.460;2023-11-19T13:04:29;99014.78;;;11.87;87.54
59055;BME280;44845;51.444;7.460;2023-11-19T13:06:56;99025.16;;;11.90;87.29
59055;BME280;44845;51.444;7.460;2023-11-19T13:09:23;99023.53;;;11.86;87.41
59055;BME280;44845;51.444;7.460;2023-11-19T13:11:50;99013.91;;;11.86;87.66
59055;BME280;44845;51.444;7.460;2023-11-19T13:14:15;99027.09;;;11.85;88.23
59055;BME280;44845;51.444;7.460;2023-11-19T13:16:41;99000.88;;;11.81;87.66
59055;BME280;44845;51.444;7.460;2023-11-19T13:19:07;99016.72;;;11.78;87.17